Time;durP1;ratioP1;P1;durP2;ratioP2;P2;SDS_P1;SDS_P2;PMS_P1;PMS_P2;Temp;Humidity;BMP_temperature;BMP_pressure;BME280_temperature;BME280_humidity;BME280_pressure;Samples;Min_cycle;Max_cycle;Signal;HPM_P1;HPM_P2
2024/04/07 00:01:45;;;;;;;5.78;1.50;;;17.00;99.90;;;;;;5055779;28;20025;-89
2024/04/07 00:04:11;;;;;;;5.22;1.55;;;17.00;99.90;;;;;;5053901;28;20036;-89
2024/04/07 00:06:37;;;;;;;6.50;1.67;;;17.00;99.90;;;;;;5042285;28;20445;-88
2024/04/07 00:09:03;;;;;;;7.90;1.40;;;17.10;99.90;;;;;;5017513;28;20493;-89
2024/04/07 00:11:29;;;;;;;6.22;1.23;;;17.10;99.90;;;;;;5039800;28;20108;-88
2024/04/07 00:13:55;;;;;;;5.55;1.40;;;17.10;99.90;;;;;;5055029;28;20032;-88
2024/04/07 00:16:21;;;;;;;5.68;1.60;;;17.10;99.90;;;;;;5051000;28;20018;-88
2024/04/07 00:18:48;;;;;;;5.10;1.27;;;17.10;99.90;;;;;;5034574;28;20505;-89
2024/04/07 00:21:13;;;;;;;3.53;1.40;;;17.10;99.90;;;;;;5045265;28;20496;-88
2024/04/07 00:23:39;;;;;;;7.63;1.77;;;17.10;99.90;;;;;;5055102;28;20096;-88
2024/04/07 00:26:05;;;;;;;6.82;1.63;;;17.10;99.90;;;;;;5037441;28;20025;-87
2024/04/07 00:28:31;;;;;;;5.32;1.30;;;17.10;99.90;;;;;;5052669;28;20047;-89
2024/04/07 00:30:57;;;;;;;5.53;1.58;;;17.10;99.90;;;;;;5035281;28;20108;-89
2024/04/07 00:33:23;;;;;;;7.07;1.75;;;17.00;99.90;;;;;;5017088;28;20025;-88
2024/04/07 00:35:59;;;;;;;4.00;1.10;;;17.10;99.90;;;;;;5034497;28;20179;-88
2024/04/07 00:38:26;;;;;;;4.35;1.08;;;17.10;99.90;;;;;;5017455;28;20045;-88
2024/04/07 00:40:56;;;;;;;4.13;1.33;;;17.10;99.90;;;;;;5032639;28;20104;-88
2024/04/07 00:43:22;;;;;;;5.90;1.50;;;17.10;99.90;;;;;;5017522;28;20527;-88
2024/04/07 00:45:48;;;;;;;6.20;1.52;;;17.20;99.90;;;;;;5017312;28;20026;-89
2024/04/07 00:48:18;;;;;;;4.93;1.05;;;17.20;99.90;;;;;;5050357;28;20025;-89
2024/04/07 00:50:48;;;;;;;8.25;1.38;;;17.20;99.90;;;;;;5047802;28;20022;-88
2024/04/07 00:53:15;;;;;;;5.22;1.60;;;17.20;99.90;;;;;;5034853;28;20104;-89
2024/04/07 00:55:42;;;;;;;7.43;1.20;;;17.20;99.90;;;;;;5034554;28;20021;-88
2024/04/07 00:58:16;;;;;;;6.90;1.70;;;17.20;99.90;;;;;;5016715;28;20021;-89
2024/04/07 01:00:43;;;;;;;4.75;1.25;;;17.20;99.90;;;;;;5020517;28;20032;-88
2024/04/07 01:03:10;;;;;;;6.88;1.60;;;17.30;99.90;;;;;;5053689;28;20039;-88
2024/04/07 01:05:43;;;;;;;4.20;1.02;;;17.30;99.90;;;;;;5037192;28;20550;-88
2024/04/07 01:08:10;;;;;;;5.82;1.27;;;17.40;99.90;;;;;;5051368;28;20076;-88
2024/04/07 01:10:36;;;;;;;6.35;1.40;;;17.40;99.90;;;;;;5054345;28;20079;-88
2024/04/07 01:13:02;;;;;;;6.30;1.20;;;17.40;99.90;;;;;;5034078;28;20060;-89
2024/04/07 01:15:28;;;;;;;2.30;0.80;;;17.50;99.90;;;;;;5046079;28;20492;-88
2024/04/07 01:17:54;;;;;;;4.72;0.80;;;17.40;99.90;;;;;;5053678;28;20469;-88
2024/04/07 01:20:20;;;;;;;4.68;0.70;;;17.40;99.90;;;;;;5054054;28;20027;-89
2024/04/07 01:22:46;;;;;;;4.90;0.70;;;17.40;99.90;;;;;;5054236;28;20481;-89
2024/04/07 01:25:17;;;;;;;7.25;0.93;;;17.40;99.90;;;;;;5047303;28;20079;-88
2024/04/07 01:28:04;;;;;;;5.40;0.73;;;17.40;99.90;;;;;;5034180;28;20440;-88
2024/04/07 01:30:31;;;;;;;4.13;0.60;;;17.40;99.90;;;;;;5051649;28;20025;-89
2024/04/07 01:32:57;;;;;;;6.35;0.85;;;17.50;99.90;;;;;;5053801;28;20057;-88
2024/04/07 01:35:23;;;;;;;10.50;0.82;;;17.50;99.90;;;;;;5053772;28;20099;-88
2024/04/07 01:37:48;;;;;;;2.75;0.57;;;17.40;99.90;;;;;;5053653;28;20021;-89
2024/04/07 01:40:14;;;;;;;3.90;0.82;;;17.40;99.90;;;;;;5038607;28;20032;-87
2024/04/07 01:42:40;;;;;;;3.85;0.57;;;17.40;99.90;;;;;;5033806;28;20084;-87
2024/04/07 01:45:07;;;;;;;9.13;0.80;;;17.40;99.90;;;;;;5032881;28;20025;-87
2024/04/07 01:47:33;;;;;;;4.10;0.50;;;17.30;99.90;;;;;;5043925;28;20530;-88
2024/04/07 01:50:00;;;;;;;7.82;0.70;;;17.30;99.90;;;;;;5041397;28;20408;-89
2024/04/07 01:52:26;;;;;;;7.15;0.70;;;17.20;99.90;;;;;;5033766;28;20108;-88
2024/04/07 01:54:52;;;;;;;3.45;0.47;;;17.20;99.90;;;;;;5033329;28;20124;-89
2024/04/07 01:57:18;;;;;;;5.50;0.80;;;17.10;99.90;;;;;;5033666;28;20452;-88
2024/04/07 01:59:43;;;;;;;5.40;0.50;;;17.00;99.90;;;;;;5041757;28;20025;-89
2024/04/07 02:02:09;;;;;;;2.38;0.60;;;17.00;99.90;;;;;;5033154;28;20037;-89
2024/04/07 02:04:35;;;;;;;5.57;0.60;;;16.90;99.90;;;;;;5035839;28;20033;-88
2024/04/07 02:07:00;;;;;;;6.15;0.75;;;16.80;99.90;;;;;;5053210;28;20530;-89
2024/04/07 02:09:26;;;;;;;4.13;0.47;;;16.80;99.90;;;;;;5053228;28;20052;-88
2024/04/07 02:11:52;;;;;;;4.97;0.43;;;16.70;99.90;;;;;;5056998;28;20495;-89
2024/04/07 02:14:17;;;;;;;3.67;0.47;;;16.70;99.90;;;;;;5036816;28;20029;-89
2024/04/07 02:16:43;;;;;;;2.88;0.50;;;16.70;99.90;;;;;;5034481;28;20105;-88
2024/04/07 02:19:11;;;;;;;7.43;0.93;;;16.60;99.90;;;;;;5041716;28;20436;-87
2024/04/07 02:21:36;;;;;;;2.47;0.40;;;16.60;99.90;;;;;;5053308;28;20021;-89
2024/04/07 02:24:02;;;;;;;4.82;0.50;;;16.50;99.90;;;;;;5053106;28;20534;-88
2024/04/07 02:26:28;;;;;;;4.07;0.73;;;16.50;99.90;;;;;;5053215;28;20052;-89
2024/04/07 02:28:53;;;;;;;2.90;0.40;;;16.50;99.90;;;;;;5053188;28;20035;-88
2024/04/07 02:31:19;;;;;;;7.05;0.63;;;16.40;99.90;;;;;;5053149;28;20035;-89
2024/04/07 02:33:46;;;;;;;4.68;0.30;;;16.40;99.90;;;;;;5052998;28;20029;-89
2024/04/07 02:36:16;;;;;;;3.80;0.47;;;16.40;99.90;;;;;;5053572;28;20033;-88
2024/04/07 02:38:42;;;;;;;2.60;0.35;;;16.40;99.90;;;;;;5030561;28;20025;-89
2024/04/07 02:41:07;;;;;;;3.45;0.45;;;16.40;99.90;;;;;;5015241;28;20037;-89
2024/04/07 02:43:33;;;;;;;2.47;0.40;;;16.30;99.90;;;;;;5033339;28;20033;-89
2024/04/07 02:48:44;;;;;;;1.27;0.20;;;16.30;99.90;;;;;;5032896;28;20188;-89
2024/04/07 02:51:09;;;;;;;1.20;0.30;;;16.20;99.90;;;;;;5032418;28;20496;-89
2024/04/07 02:53:35;;;;;;;3.88;0.30;;;16.20;99.90;;;;;;5032357;28;20025;-88
2024/04/07 02:56:01;;;;;;;3.53;0.30;;;16.20;99.90;;;;;;5032197;28;20034;-89
2024/04/07 02:58:26;;;;;;;3.25;0.40;;;16.10;99.90;;;;;;5032299;28;20032;-88
2024/04/07 03:00:52;;;;;;;2.45;0.30;;;16.10;99.90;;;;;;5052392;28;20036;-89
2024/04/07 03:03:17;;;;;;;4.68;0.30;;;16.10;99.90;;;;;;5052639;28;20037;-89
2024/04/07 03:05:43;;;;;;;4.10;0.60;;;16.00;99.90;;;;;;5052282;28;20096;-90
2024/04/07 03:08:09;;;;;;;1.77;0.20;;;16.00;99.90;;;;;;5051808;28;20053;-89
2024/04/07 03:10:34;;;;;;;2.78;0.30;;;16.00;99.90;;;;;;5050954;28;20033;-90
2024/04/07 03:13:00;;;;;;;1.63;0.30;;;16.00;99.90;;;;;;5037209;28;20108;-89
2024/04/07 03:15:26;;;;;;;1.10;0.20;;;16.00;99.90;;;;;;5052229;28;20113;-89
2024/04/07 03:17:52;;;;;;;3.13;0.20;;;16.00;99.90;;;;;;5051772;28;20415;-90
2024/04/07 03:20:17;;;;;;;3.22;0.20;;;16.00;99.90;;;;;;5052232;28;20021;-89
2024/04/07 03:22:43;;;;;;;2.72;0.22;;;16.00;99.90;;;;;;5012860;28;20064;-89
2024/04/07 03:25:08;;;;;;;2.72;0.40;;;16.00;99.90;;;;;;5012112;28;20088;-89
2024/04/07 03:27:34;;;;;;;2.72;0.50;;;16.00;99.90;;;;;;5032053;28;20063;-90
2024/04/07 03:29:59;;;;;;;2.28;0.20;;;16.00;99.90;;;;;;5050420;28;20028;-89
2024/04/07 03:32:25;;;;;;;2.50;0.20;;;16.10;99.90;;;;;;5014932;28;20044;-89
2024/04/07 03:34:51;;;;;;;2.55;0.20;;;16.10;99.90;;;;;;5037348;28;20025;-89
2024/04/07 03:37:16;;;;;;;1.58;0.10;;;16.10;99.90;;;;;;5052449;28;20025;-89
2024/04/07 03:39:42;;;;;;;2.45;0.20;;;16.20;99.90;;;;;;5051654;28;20082;-90
2024/04/07 03:42:08;;;;;;;1.95;0.40;;;16.20;99.90;;;;;;5031763;28;20111;-89
2024/04/07 03:44:34;;;;;;;0.57;0.10;;;16.20;99.90;;;;;;5033644;28;20503;-89
2024/04/07 03:46:59;;;;;;;2.53;0.30;;;16.20;99.90;;;;;;5014289;28;20555;-88
2024/04/07 03:49:25;;;;;;;3.10;0.20;;;16.20;99.90;;;;;;5029859;28;20151;-89
2024/04/07 03:51:51;;;;;;;1.95;0.20;;;16.20;99.90;;;;;;5039418;28;20381;-88
2024/04/07 03:54:18;;;;;;;2.00;0.10;;;16.20;99.90;;;;;;5032399;28;20477;-89
2024/04/07 03:56:44;;;;;;;1.00;0.20;;;16.20;99.90;;;;;;5052267;28;20029;-90
2024/04/07 03:59:09;;;;;;;1.80;0.10;;;16.20;99.90;;;;;;5051519;28;20115;-90
2024/04/07 04:01:37;;;;;;;0.73;0.17;;;16.20;99.90;;;;;;5041856;28;20032;-88
2024/04/07 04:04:03;;;;;;;1.30;0.05;;;16.20;99.90;;;;;;5031948;28;20052;-89
2024/04/07 04:06:29;;;;;;;0.57;0.03;;;16.20;99.90;;;;;;5042310;28;20033;-90
2024/04/07 04:08:55;;;;;;;0.73;0.10;;;16.20;99.90;;;;;;5053278;28;20519;-88
2024/04/07 04:11:20;;;;;;;1.10;0.28;;;16.20;99.90;;;;;;5055732;28;20074;-89
2024/04/07 04:13:49;;;;;;;2.13;0.10;;;16.20;99.90;;;;;;5054773;28;20037;-88
2024/04/07 04:16:16;;;;;;;4.40;0.10;;;16.20;99.90;;;;;;5055456;28;20419;-88
2024/04/07 04:18:42;;;;;;;0.30;0.00;;;16.20;99.90;;;;;;5056389;28;20032;-89
2024/04/07 04:21:08;;;;;;;1.23;0.25;;;16.30;99.90;;;;;;5049985;28;20469;-88
2024/04/07 04:23:33;;;;;;;0.85;0.08;;;16.30;99.90;;;;;;5045098;28;20032;-89
2024/04/07 04:26:00;;;;;;;1.48;0.00;;;16.20;99.90;;;;;;5054719;28;20032;-89
2024/04/07 04:28:25;;;;;;;0.55;0.00;;;16.20;99.90;;;;;;5055011;28;20021;-90
2024/04/07 04:30:55;;;;;;;2.65;0.00;;;16.20;99.90;;;;;;5055126;28;20021;-89
2024/04/07 04:33:22;;;;;;;0.70;0.10;;;16.30;99.90;;;;;;5046248;28;20030;-89
2024/04/07 04:35:49;;;;;;;2.42;0.10;;;16.30;99.90;;;;;;5046676;28;20025;-89
2024/04/07 04:38:15;;;;;;;0.10;0.00;;;16.30;99.90;;;;;;5054440;28;20043;-89
2024/04/07 04:40:40;;;;;;;2.38;0.10;;;16.30;99.90;;;;;;5043321;28;20021;-90
2024/04/07 04:43:06;;;;;;;1.23;0.10;;;16.30;99.90;;;;;;5023867;28;20045;-88
2024/04/07 04:45:32;;;;;;;1.25;0.08;;;16.30;99.90;;;;;;5018117;28;20032;-89
2024/04/07 04:47:58;;;;;;;0.32;0.00;;;16.30;99.90;;;;;;5030807;28;20070;-88
2024/04/07 04:50:25;;;;;;;0.50;0.00;;;16.20;99.90;;;;;;5054944;28;20017;-88
2024/04/07 04:52:50;;;;;;;1.25;0.00;;;16.20;99.90;;;;;;5054569;28;20480;-90
2024/04/07 04:55:16;;;;;;;1.17;0.10;;;16.10;99.90;;;;;;5054694;28;20073;-89
2024/04/07 04:57:42;;;;;;;1.98;0.08;;;16.10;99.90;;;;;;5054533;28;20052;-90
2024/04/07 05:00:09;;;;;;;0.38;0.00;;;16.10;99.90;;;;;;5054474;28;20025;-88
2024/04/07 05:02:34;;;;;;;0.40;0.10;;;16.10;99.90;;;;;;5054043;28;20071;-89
2024/04/07 05:05:00;;;;;;;0.43;0.00;;;16.10;99.90;;;;;;5048933;28;20045;-89
2024/04/07 05:07:25;;;;;;;0.43;0.00;;;16.10;99.90;;;;;;5050667;28;20021;-90
2024/04/07 05:09:51;;;;;;;0.52;0.00;;;16.10;99.90;;;;;;5036542;28;20029;-90
2024/04/07 05:12:16;;;;;;;1.02;0.10;;;16.10;99.90;;;;;;5039612;28;20052;-89
2024/04/07 05:14:42;;;;;;;1.08;0.10;;;16.10;99.90;;;;;;5034685;28;20033;-88
2024/04/07 05:17:08;;;;;;;2.60;0.10;;;16.00;99.90;;;;;;5034484;28;20026;-88
2024/04/07 05:19:35;;;;;;;0.90;0.10;;;16.00;99.90;;;;;;5044007;28;20056;-89
2024/04/07 05:22:00;;;;;;;1.98;0.10;;;16.00;99.90;;;;;;5053579;28;20040;-89
2024/04/07 05:24:28;;;;;;;0.75;0.10;;;16.00;99.90;;;;;;5053997;28;20033;-89
2024/04/07 05:26:54;;;;;;;0.75;0.00;;;16.00;99.90;;;;;;5013984;28;20200;-89
2024/04/07 05:29:20;;;;;;;1.73;0.10;;;15.90;99.90;;;;;;5014494;28;20044;-89
2024/04/07 05:31:45;;;;;;;1.85;0.22;;;15.90;99.90;;;;;;5000666;28;20018;-88
2024/04/07 05:34:11;;;;;;;1.45;0.10;;;15.90;99.90;;;;;;5035732;28;20175;-89
2024/04/07 05:36:37;;;;;;;0.43;0.00;;;15.90;99.90;;;;;;5053792;28;20033;-89
2024/04/07 05:39:02;;;;;;;2.78;0.10;;;15.90;99.90;;;;;;5052754;28;20021;-88
2024/04/07 05:41:28;;;;;;;0.90;0.10;;;15.90;99.90;;;;;;5053940;28;20036;-89
2024/04/07 05:43:53;;;;;;;1.17;0.20;;;15.90;99.90;;;;;;5038286;28;20034;-88
2024/04/07 05:46:19;;;;;;;1.08;0.15;;;15.90;99.90;;;;;;5034115;28;20028;-89
2024/04/07 05:48:44;;;;;;;0.20;0.00;;;15.90;99.90;;;;;;5051461;28;20079;-89
2024/04/07 05:51:14;;;;;;;0.52;0.10;;;16.00;99.90;;;;;;5052476;28;20112;-88
2024/04/07 05:53:39;;;;;;;1.65;0.10;;;15.90;99.90;;;;;;5045154;28;20044;-89
2024/04/07 05:56:11;;;;;;;0.77;0.10;;;16.00;99.90;;;;;;5054138;28;20021;-90
2024/04/07 05:58:37;;;;;;;1.00;0.10;;;16.00;99.90;;;;;;5034269;28;20067;-88
2024/04/07 06:01:03;;;;;;;1.00;0.10;;;16.00;99.90;;;;;;5033464;28;20029;-88
2024/04/07 06:03:29;;;;;;;2.13;0.10;;;16.00;99.90;;;;;;5024092;28;20097;-88
2024/04/07 06:05:54;;;;;;;3.10;0.10;;;15.90;99.90;;;;;;5053129;28;20036;-88
2024/04/07 06:08:20;;;;;;;0.77;0.10;;;15.80;99.90;;;;;;5044107;28;20401;-88
2024/04/07 06:10:45;;;;;;;2.63;0.10;;;15.80;99.90;;;;;;5053163;28;20071;-88
2024/04/07 06:13:11;;;;;;;1.40;0.10;;;15.70;99.90;;;;;;5053475;28;20425;-89
2024/04/07 06:15:36;;;;;;;1.98;0.10;;;15.80;99.90;;;;;;5053142;28;20028;-89
2024/04/07 06:18:02;;;;;;;1.17;0.20;;;15.80;99.90;;;;;;5040288;28;20029;-89
2024/04/07 06:20:27;;;;;;;0.63;0.10;;;15.80;99.90;;;;;;5052972;28;20021;-88
2024/04/07 06:22:53;;;;;;;1.00;0.10;;;15.70;99.90;;;;;;5052600;28;20047;-88
2024/04/07 06:25:19;;;;;;;1.75;0.10;;;15.70;99.90;;;;;;5045130;28;20049;-90
2024/04/07 06:27:46;;;;;;;2.70;0.10;;;15.60;99.90;;;;;;5033237;28;20040;-88
2024/04/07 06:30:12;;;;;;;0.38;0.10;;;15.60;99.90;;;;;;5034625;28;20469;-89
2024/04/07 06:32:38;;;;;;;0.85;0.10;;;15.50;99.90;;;;;;5049897;28;20044;-88
2024/04/07 06:35:04;;;;;;;4.32;0.20;;;15.50;99.90;;;;;;5047303;28;20093;-87
2024/04/07 06:37:30;;;;;;;2.25;0.10;;;15.50;99.90;;;;;;5033008;28;20056;-88
2024/04/07 06:39:56;;;;;;;1.88;0.10;;;15.50;99.90;;;;;;5032138;28;20490;-89
2024/04/07 06:42:27;;;;;;;0.85;0.10;;;15.50;99.90;;;;;;5046937;28;20037;-88
2024/04/07 06:44:53;;;;;;;2.10;0.20;;;15.60;99.90;;;;;;5052626;28;20424;-89
2024/04/07 06:47:20;;;;;;;2.15;0.13;;;15.60;99.90;;;;;;5052412;28;20024;-87
2024/04/07 06:49:53;;;;;;;1.90;0.10;;;15.60;99.90;;;;;;5052971;28;20027;-88
2024/04/07 06:52:19;;;;;;;2.97;0.20;;;15.60;99.90;;;;;;5052702;28;20025;-88
2024/04/07 06:54:45;;;;;;;0.73;0.10;;;15.60;99.90;;;;;;5050081;28;20675;-87
2024/04/07 06:57:13;;;;;;;1.67;0.10;;;15.60;99.90;;;;;;5051951;28;20028;-89
2024/04/07 06:59:39;;;;;;;1.75;0.30;;;15.60;99.90;;;;;;5041588;28;20506;-88
2024/04/07 07:02:06;;;;;;;2.70;0.32;;;15.70;99.90;;;;;;5032596;28;20057;-87
2024/04/07 07:04:31;;;;;;;1.38;0.20;;;15.70;99.90;;;;;;5040591;28;20056;-89
2024/04/07 07:06:58;;;;;;;0.40;0.05;;;15.80;99.90;;;;;;5048217;28;20025;-90
2024/04/07 07:09:24;;;;;;;2.15;0.40;;;15.80;99.90;;;;;;5023547;28;20124;-88
2024/04/07 07:11:49;;;;;;;1.63;0.10;;;15.80;99.90;;;;;;5052418;28;20520;-88
2024/04/07 07:14:15;;;;;;;0.63;0.10;;;15.80;99.90;;;;;;5052420;28;20052;-89
2024/04/07 07:16:41;;;;;;;1.83;0.20;;;15.70;99.90;;;;;;5052040;28;20416;-88
2024/04/07 07:19:06;;;;;;;2.97;0.50;;;15.70;99.90;;;;;;5046405;28;20033;-88
2024/04/07 07:21:32;;;;;;;2.30;0.10;;;15.60;99.90;;;;;;5040503;28;20556;-89
2024/04/07 07:23:57;;;;;;;2.53;0.10;;;15.60;99.90;;;;;;5051705;28;20108;-88
2024/04/07 07:26:23;;;;;;;1.45;0.10;;;15.60;99.90;;;;;;5052234;28;20500;-87
2024/04/07 07:28:49;;;;;;;3.17;0.28;;;15.60;99.90;;;;;;5052155;28;20033;-88
2024/04/07 07:31:15;;;;;;;1.00;0.10;;;15.60;99.90;;;;;;5045585;28;20021;-87
2024/04/07 07:33:43;;;;;;;2.25;0.20;;;15.60;99.90;;;;;;5038562;28;20117;-88
2024/04/07 07:36:09;;;;;;;2.47;0.20;;;15.60;99.90;;;;;;5045852;28;20025;-89
2024/04/07 07:38:34;;;;;;;2.58;0.47;;;15.60;99.90;;;;;;5049511;28;20051;-87
2024/04/07 07:41:00;;;;;;;5.45;0.20;;;15.60;99.90;;;;;;5024608;28;20017;-88
2024/04/07 07:43:25;;;;;;;2.08;0.10;;;15.60;99.90;;;;;;5013101;28;20038;-87
2024/04/07 07:45:51;;;;;;;1.73;0.22;;;15.70;99.90;;;;;;5033482;28;20053;-89
2024/04/07 07:48:17;;;;;;;0.98;0.20;;;15.90;99.90;;;;;;5028970;28;20096;-87
2024/04/07 07:50:46;;;;;;;4.20;0.20;;;16.10;99.90;;;;;;5048492;28;20108;-89
2024/04/07 07:53:11;;;;;;;2.30;0.10;;;16.30;99.90;;;;;;5035097;28;20037;-88
2024/04/07 07:55:37;;;;;;;1.05;0.20;;;16.40;99.90;;;;;;5048966;28;20025;-87
2024/04/07 07:58:02;;;;;;;0.40;0.10;;;16.50;99.90;;;;;;5055384;28;20431;-88
2024/04/07 08:00:29;;;;;;;0.70;0.20;;;16.60;99.90;;;;;;5055588;28;20041;-89
2024/04/07 08:02:54;;;;;;;3.47;0.88;;;16.80;99.90;;;;;;5055394;28;20029;-89
2024/04/07 08:05:20;;;;;;;1.33;0.20;;;16.90;99.90;;;;;;5055804;28;20109;-88
2024/04/07 08:07:45;;;;;;;3.15;0.20;;;16.90;99.90;;;;;;5043451;28;20124;-87
2024/04/07 08:10:12;;;;;;;2.75;0.20;;;17.10;99.90;;;;;;5035425;28;20029;-88
2024/04/07 08:12:43;;;;;;;5.00;0.65;;;17.10;99.90;;;;;;5036231;28;20476;-88
2024/04/07 08:15:11;;;;;;;2.85;0.30;;;17.10;99.90;;;;;;5055141;28;20480;-88
2024/04/07 08:17:37;;;;;;;2.33;0.17;;;17.20;99.90;;;;;;5045799;28;20112;-88
2024/04/07 08:20:02;;;;;;;2.35;0.20;;;17.10;99.90;;;;;;5046753;28;20044;-88
2024/04/07 08:22:28;;;;;;;3.83;0.30;;;17.20;99.90;;;;;;5055301;28;20112;-89
2024/04/07 08:24:54;;;;;;;2.25;0.20;;;17.30;99.90;;;;;;5055094;28;20021;-88
2024/04/07 08:27:21;;;;;;;1.63;0.20;;;17.30;99.90;;;;;;5055143;28;20389;-88
2024/04/07 08:29:47;;;;;;;1.48;0.20;;;17.30;99.90;;;;;;5055507;28;20032;-87
2024/04/07 08:32:13;;;;;;;2.40;0.22;;;17.40;99.90;;;;;;5055181;28;20029;-88
2024/04/07 08:34:39;;;;;;;4.13;0.50;;;17.50;99.90;;;;;;5044540;28;20374;-87
2024/04/07 08:37:05;;;;;;;1.48;0.20;;;17.50;99.90;;;;;;5034794;28;20029;-88
2024/04/07 08:39:30;;;;;;;6.00;0.55;;;17.60;99.90;;;;;;5037947;28;20556;-88
2024/04/07 08:42:00;;;;;;;3.05;0.60;;;17.80;99.90;;;;;;5034561;28;20022;-89
2024/04/07 08:44:26;;;;;;;2.15;0.20;;;17.80;99.90;;;;;;5054687;28;20420;-88
2024/04/07 08:46:53;;;;;;;2.75;0.30;;;17.80;99.90;;;;;;5054587;28;20032;-88
2024/04/07 08:49:20;;;;;;;1.55;0.28;;;17.80;99.90;;;;;;5053157;28;20139;-89
2024/04/07 08:51:49;;;;;;;2.28;0.22;;;17.80;99.90;;;;;;5017442;28;20075;-87
2024/04/07 08:54:16;;;;;;;1.75;0.20;;;17.80;99.90;;;;;;5034857;28;20385;-89
2024/04/07 08:56:43;;;;;;;2.58;0.30;;;17.90;99.90;;;;;;5053068;28;20064;-88
2024/04/07 08:59:13;;;;;;;4.75;0.82;;;17.90;99.90;;;;;;5053713;28;20032;-88
2024/04/07 09:01:44;;;;;;;3.58;0.47;;;17.90;99.90;;;;;;5037315;28;20026;-88
2024/04/07 09:04:14;;;;;;;2.92;0.30;;;17.90;99.90;;;;;;5051402;28;20064;-88
2024/04/07 09:06:41;;;;;;;3.97;0.30;;;17.90;99.90;;;;;;5054631;28;20067;-87
2024/04/07 09:09:07;;;;;;;2.80;0.22;;;17.90;99.90;;;;;;5042621;28;20050;-88
2024/04/07 09:11:37;;;;;;;2.17;0.30;;;17.90;99.90;;;;;;5034342;28;20063;-89
2024/04/07 09:14:06;;;;;;;2.85;0.30;;;17.90;99.90;;;;;;5038728;28;20033;-88
2024/04/07 09:16:32;;;;;;;2.65;0.20;;;18.00;99.90;;;;;;5046778;28;20025;-87
2024/04/07 09:18:58;;;;;;;2.90;0.22;;;18.00;99.90;;;;;;5034222;28;20033;-89
2024/04/07 09:21:24;;;;;;;1.98;0.25;;;18.20;99.90;;;;;;5040824;28;20473;-88
2024/04/07 09:23:49;;;;;;;2.75;0.30;;;18.20;99.90;;;;;;5054047;28;20044;-89
2024/04/07 09:26:19;;;;;;;2.72;0.30;;;18.10;99.90;;;;;;5054224;28;20414;-88
2024/04/07 09:28:45;;;;;;;1.48;0.15;;;18.10;99.90;;;;;;5054107;28;20033;-88
2024/04/07 09:31:11;;;;;;;2.17;0.22;;;18.20;99.90;;;;;;5040154;28;20034;-88
2024/04/07 09:33:36;;;;;;;1.42;0.20;;;18.40;99.90;;;;;;5034041;28;20033;-88
2024/04/07 09:36:03;;;;;;;1.90;0.20;;;18.60;99.90;;;;;;5037214;28;20400;-88
2024/04/07 09:38:29;;;;;;;1.15;0.20;;;18.80;99.90;;;;;;5048499;28;20048;-88
2024/04/07 09:40:57;;;;;;;1.95;0.20;;;19.00;99.90;;;;;;5053772;28;20466;-89
2024/04/07 09:43:27;;;;;;;1.45;0.30;;;19.10;99.90;;;;;;5053981;28;20037;-88
2024/04/07 09:45:54;;;;;;;2.88;0.30;;;19.10;99.90;;;;;;5036358;28;20029;-89
2024/04/07 09:48:21;;;;;;;1.38;0.20;;;19.20;99.90;;;;;;5053633;28;20033;-89
2024/04/07 09:51:06;;;;;;;1.92;0.30;;;19.10;99.90;;;;;;5054118;28;20078;-88
2024/04/07 09:53:53;;;;;;;3.05;0.30;;;19.10;99.90;;;;;;5037167;28;20021;-88
2024/04/07 09:56:23;;;;;;;4.18;0.50;;;19.20;99.90;;;;;;5033716;28;20117;-88
2024/04/07 09:58:51;;;;;;;2.30;0.20;;;19.30;99.90;;;;;;5033619;28;20028;-89
2024/04/07 10:01:21;;;;;;;1.88;0.30;;;19.40;99.90;;;;;;5038367;28;20045;-88
2024/04/07 10:03:50;;;;;;;0.90;0.10;;;19.30;99.90;;;;;;5034969;28;20075;-88
2024/04/07 10:06:16;;;;;;;2.88;0.20;;;19.30;99.90;;;;;;5053444;28;20026;-88
2024/04/07 10:08:43;;;;;;;2.97;0.68;;;19.20;99.90;;;;;;5035792;28;20057;-88
2024/04/07 10:11:19;;;;;;;1.00;0.10;;;19.20;99.90;;;;;;5040215;28;20102;-88
2024/04/07 10:13:46;;;;;;;3.00;0.40;;;19.30;99.90;;;;;;5015829;28;20033;-88
2024/04/07 10:16:15;;;;;;;1.63;0.20;;;19.40;99.90;;;;;;5015339;28;20022;-88
2024/04/07 10:18:42;;;;;;;1.63;0.17;;;19.50;99.90;;;;;;5034631;28;20026;-87
2024/04/07 10:21:09;;;;;;;1.60;0.20;;;19.50;99.90;;;;;;5034895;28;20017;-88
2024/04/07 10:23:36;;;;;;;2.33;0.20;;;19.60;99.90;;;;;;5032819;28;20083;-89
2024/04/07 10:26:04;;;;;;;2.75;0.20;;;19.60;99.90;;;;;;5032690;28;20478;-89
2024/04/07 10:28:56;;;;;;;1.58;0.10;;;19.70;99.40;;;;;;5040096;28;20480;-89
2024/04/07 10:31:23;;;;;;;1.55;0.57;;;19.70;99.60;;;;;;5053228;28;20152;-88
2024/04/07 10:33:51;;;;;;;2.35;0.20;;;19.60;99.30;;;;;;5035130;28;20086;-87
2024/04/07 10:36:18;;;;;;;3.35;0.30;;;19.60;99.40;;;;;;5048119;28;20669;-89
2024/04/07 10:38:47;;;;;;;1.48;0.20;;;19.60;99.90;;;;;;5013186;28;20025;-89
2024/04/07 10:41:17;;;;;;;3.22;0.73;;;19.60;99.30;;;;;;5048148;28;20036;-88
2024/04/07 10:43:45;;;;;;;1.55;0.10;;;19.60;99.70;;;;;;5050319;28;20036;-89
2024/04/07 10:46:10;;;;;;;1.15;0.20;;;19.60;99.90;;;;;;5052426;28;20021;-88
2024/04/07 10:48:36;;;;;;;1.88;0.15;;;19.60;98.80;;;;;;5052193;28;20040;-88
2024/04/07 10:51:03;;;;;;;2.25;0.20;;;19.70;97.50;;;;;;5039448;28;20045;-89
2024/04/07 10:53:29;;;;;;;2.25;0.20;;;19.70;96.60;;;;;;5032983;28;20026;-89
2024/04/07 10:55:54;;;;;;;0.93;0.20;;;19.70;97.20;;;;;;5035997;28;20035;-89
2024/04/07 10:58:20;;;;;;;2.15;0.30;;;19.80;96.70;;;;;;5052449;28;20036;-89
2024/04/07 11:00:46;;;;;;;1.42;0.50;;;19.90;97.30;;;;;;5042810;28;20021;-89
2024/04/07 11:03:12;;;;;;;3.97;0.20;;;19.90;97.30;;;;;;5032286;28;20041;-89
2024/04/07 11:05:37;;;;;;;2.05;0.20;;;20.00;97.10;;;;;;5050116;28;20275;-88
2024/04/07 11:08:04;;;;;;;1.27;0.20;;;20.10;96.60;;;;;;5052027;28;20071;-90
2024/04/07 11:10:39;;;;;;;1.02;0.10;;;20.20;96.20;;;;;;5044053;28;20022;-89
2024/04/07 11:13:08;;;;;;;1.40;0.22;;;20.20;95.90;;;;;;5037985;28;20029;-89
2024/04/07 11:15:34;;;;;;;1.25;0.10;;;20.30;95.50;;;;;;5052509;28;20033;-89
2024/04/07 11:18:11;;;;;;;0.80;0.10;;;20.30;94.70;;;;;;5049248;28;20013;-89
2024/04/07 11:20:37;;;;;;;1.40;0.10;;;20.30;95.10;;;;;;5046543;28;20033;-88
2024/04/07 11:23:02;;;;;;;1.75;0.17;;;20.40;94.70;;;;;;5051740;28;20079;-89
2024/04/07 11:25:28;;;;;;;1.30;0.10;;;20.50;94.50;;;;;;5035111;28;20064;-89
2024/04/07 11:27:53;;;;;;;2.85;0.10;;;20.70;94.10;;;;;;5032328;28;20033;-89
2024/04/07 11:30:19;;;;;;;1.83;0.20;;;20.70;94.40;;;;;;5044826;28;20097;-89
2024/04/07 11:32:51;;;;;;;0.95;0.20;;;20.80;94.40;;;;;;5017138;28;20025;-89
2024/04/07 11:35:17;;;;;;;1.17;0.28;;;20.90;94.20;;;;;;5014980;28;20021;-89
2024/04/07 11:37:44;;;;;;;3.08;0.20;;;21.00;92.30;;;;;;5032337;28;20037;-90
2024/04/07 11:40:10;;;;;;;1.67;0.20;;;20.90;91.40;;;;;;5043522;28;20396;-88
2024/04/07 11:42:36;;;;;;;1.20;0.10;;;20.90;91.20;;;;;;5051847;28;20025;-90
2024/04/07 11:45:04;;;;;;;4.63;0.38;;;21.00;90.80;;;;;;5049114;28;20544;-89
2024/04/07 11:47:29;;;;;;;0.47;0.10;;;20.90;90.20;;;;;;5032242;28;20030;-89
2024/04/07 11:49:55;;;;;;;0.65;0.10;;;21.00;90.50;;;;;;5031953;28;20517;-88
2024/04/07 11:52:21;;;;;;;0.25;0.08;;;21.00;89.80;;;;;;5032003;28;20075;-89
2024/04/07 11:54:47;;;;;;;1.95;0.20;;;21.10;88.50;;;;;;5032034;28;20033;-89
2024/04/07 11:57:12;;;;;;;1.33;0.30;;;21.10;87.50;;;;;;5035990;28;20116;-88
2024/04/07 11:59:38;;;;;;;1.48;0.15;;;21.10;87.10;;;;;;5051698;28;20028;-90
2024/04/07 12:02:03;;;;;;;2.17;0.20;;;21.10;86.50;;;;;;5051592;28;20530;-89
2024/04/07 12:04:29;;;;;;;3.53;0.20;;;21.10;87.70;;;;;;5051743;28;20404;-89
2024/04/07 12:06:55;;;;;;;1.73;0.10;;;21.10;86.90;;;;;;5051814;28;20032;-89
2024/04/07 12:09:20;;;;;;;0.98;0.30;;;21.10;87.10;;;;;;5045912;28;20053;-89
2024/04/07 12:11:46;;;;;;;1.40;0.10;;;21.20;87.90;;;;;;5044702;28;20021;-89
2024/04/07 12:14:11;;;;;;;0.98;0.17;;;21.20;87.60;;;;;;5051426;28;20024;-90
2024/04/07 12:16:37;;;;;;;2.35;0.10;;;21.30;87.20;;;;;;5051521;28;20112;-89
2024/04/07 12:19:03;;;;;;;1.17;0.20;;;21.40;85.30;;;;;;5051366;28;20021;-90
2024/04/07 12:21:29;;;;;;;2.55;0.17;;;21.40;84.80;;;;;;5045932;28;20033;-88
2024/04/07 12:23:54;;;;;;;1.25;0.10;;;21.40;83.40;;;;;;5051189;28;20044;-89
2024/04/07 12:26:20;;;;;;;0.80;0.10;;;21.40;83.90;;;;;;5051486;28;20025;-89
2024/04/07 12:28:46;;;;;;;1.00;0.10;;;21.30;82.50;;;;;;5034724;28;20025;-89
2024/04/07 12:31:11;;;;;;;4.40;0.10;;;21.30;83.00;;;;;;5036790;28;20029;-89
2024/04/07 12:33:37;;;;;;;1.65;0.20;;;21.40;81.80;;;;;;5052386;28;20024;-89
2024/04/07 12:36:03;;;;;;;0.57;0.10;;;21.30;81.30;;;;;;5017402;28;20033;-90
2024/04/07 12:38:29;;;;;;;0.88;0.20;;;21.30;81.30;;;;;;5038292;28;20017;-89
2024/04/07 12:40:55;;;;;;;1.25;0.20;;;21.30;80.30;;;;;;5034836;28;20037;-89
2024/04/07 12:43:20;;;;;;;2.47;0.10;;;21.30;80.10;;;;;;5035311;28;20454;-89
2024/04/07 12:45:46;;;;;;;1.30;0.43;;;21.30;80.50;;;;;;5034916;28;20068;-89
2024/04/07 12:48:29;;;;;;;2.42;0.17;;;21.40;79.70;;;;;;5034439;28;20036;-89